sensor_id;sensor_type;location;lat;lon;timestamp;pressure;altitude;pressure_sealevel;temperature;humidity
15382;BME280;7789;51.364;12.358;2024-01-25T00:02:47;100804.72;;;10.46;83.80
15382;BME280;7789;51.364;12.358;2024-01-25T00:07:52;100796.88;;;10.46;84.28
15382;BME280;7789;51.364;12.358;2024-01-25T00:12:55;100791.88;;;10.43;84.13
15382;BME280;7789;51.364;12.358;2024-01-25T00:17:59;100808.75;;;10.39;84.71
15382;BME280;7789;51.364;12.358;2024-01-25T00:23:04;100805.88;;;10.42;84.42
15382;BME280;7789;51.364;12.358;2024-01-25T00:28:07;100816.47;;;10.40;84.32
15382;BME280;7789;51.364;12.358;2024-01-25T00:33:11;100816.56;;;10.39;84.27
15382;BME280;7789;51.364;12.358;2024-01-25T00:38:17;100809.59;;;10.39;85.11
15382;BME280;7789;51.364;12.358;2024-01-25T00:43:21;100810.63;;;10.37;84.72
15382;BME280;7789;51.364;12.358;2024-01-25T00:48:25;100807.41;;;10.33;84.61
15382;BME280;7789;51.364;12.358;2024-01-25T00:53:30;100813.25;;;10.37;85.39
15382;BME280;7789;51.364;12.358;2024-01-25T00:58:35;100815.16;;;10.35;85.09
15382;BME280;7789;51.364;12.358;2024-01-25T01:03:39;100810.97;;;10.32;84.79
15382;BME280;7789;51.364;12.358;2024-01-25T01:08:50;100803.13;;;10.32;84.75
15382;BME280;7789;51.364;12.358;2024-01-25T01:13:54;100804.94;;;10.32;83.95
15382;BME280;7789;51.364;12.358;2024-01-25T01:19:00;100799.56;;;10.33;85.05
15382;BME280;7789;51.364;12.358;2024-01-25T01:24:14;100818.19;;;10.29;84.56
15382;BME280;7789;51.364;12.358;2024-01-25T01:29:20;100817.47;;;10.27;84.02
15382;BME280;7789;51.364;12.358;2024-01-25T01:34:24;100820.94;;;10.27;84.54
15382;BME280;7789;51.364;12.358;2024-01-25T01:39:29;100829.72;;;10.26;84.41
15382;BME280;7789;51.364;12.358;2024-01-25T01:44:32;100833.38;;;10.24;83.36
15382;BME280;7789;51.364;12.358;2024-01-25T01:49:37;100848.00;;;10.26;84.34
15382;BME280;7789;51.364;12.358;2024-01-25T01:54:43;100853.22;;;10.26;84.67
15382;BME280;7789;51.364;12.358;2024-01-25T01:59:47;100842.06;;;10.24;83.29
15382;BME280;7789;51.364;12.358;2024-01-25T02:04:52;100857.59;;;10.26;83.33
15382;BME280;7789;51.364;12.358;2024-01-25T02:09:57;100846.44;;;10.24;83.88
15382;BME280;7789;51.364;12.358;2024-01-25T02:15:01;100844.69;;;10.24;82.96
15382;BME280;7789;51.364;12.358;2024-01-25T02:20:07;100831.84;;;10.21;83.24
15382;BME280;7789;51.364;12.358;2024-01-25T02:25:12;100837.41;;;10.17;82.72
15382;BME280;7789;51.364;12.358;2024-01-25T02:30:15;100842.72;;;10.15;82.53
15382;BME280;7789;51.364;12.358;2024-01-25T02:35:19;100836.06;;;10.11;82.58
15382;BME280;7789;51.364;12.358;2024-01-25T02:40:24;100826.25;;;10.02;82.88
15382;BME280;7789;51.364;12.358;2024-01-25T02:45:28;100819.88;;;9.94;82.94
15382;BME280;7789;51.364;12.358;2024-01-25T02:50:31;100825.16;;;9.81;83.15
15382;BME280;7789;51.364;12.358;2024-01-25T02:55:36;100822.50;;;9.70;83.15
15382;BME280;7789;51.364;12.358;2024-01-25T03:00:42;100818.75;;;9.62;83.66
15382;BME280;7789;51.364;12.358;2024-01-25T03:05:46;100830.34;;;9.58;83.69
15382;BME280;7789;51.364;12.358;2024-01-25T03:10:53;100834.34;;;9.51;83.90
15382;BME280;7789;51.364;12.358;2024-01-25T03:15:59;100839.44;;;9.40;84.73
15382;BME280;7789;51.364;12.358;2024-01-25T03:21:03;100844.66;;;9.40;85.18
15382;BME280;7789;51.364;12.358;2024-01-25T03:26:08;100850.31;;;9.46;85.12
15382;BME280;7789;51.364;12.358;2024-01-25T03:31:12;100843.50;;;9.44;85.23
15382;BME280;7789;51.364;12.358;2024-01-25T03:36:15;100847.81;;;9.45;86.12
15382;BME280;7789;51.364;12.358;2024-01-25T03:41:20;100839.88;;;9.46;86.00
15382;BME280;7789;51.364;12.358;2024-01-25T03:46:25;100845.59;;;9.39;86.39
15382;BME280;7789;51.364;12.358;2024-01-25T03:51:29;100837.56;;;9.42;86.39
15382;BME280;7789;51.364;12.358;2024-01-25T03:56:34;100853.03;;;9.45;86.76
15382;BME280;7789;51.364;12.358;2024-01-25T04:01:41;100851.56;;;9.41;87.33
15382;BME280;7789;51.364;12.358;2024-01-25T04:06:48;100856.16;;;9.37;87.38
15382;BME280;7789;51.364;12.358;2024-01-25T04:11:53;100865.13;;;9.33;88.23
15382;BME280;7789;51.364;12.358;2024-01-25T04:16:56;100877.56;;;9.30;89.04
15382;BME280;7789;51.364;12.358;2024-01-25T04:22:01;100875.78;;;9.30;88.90
15382;BME280;7789;51.364;12.358;2024-01-25T04:27:07;100893.81;;;9.33;88.73
15382;BME280;7789;51.364;12.358;2024-01-25T04:32:12;100913.66;;;9.36;88.38
15382;BME280;7789;51.364;12.358;2024-01-25T04:37:15;100934.22;;;9.40;88.83
15382;BME280;7789;51.364;12.358;2024-01-25T04:42:21;100949.66;;;9.43;87.84
15382;BME280;7789;51.364;12.358;2024-01-25T04:47:24;100957.28;;;9.46;88.04
15382;BME280;7789;51.364;12.358;2024-01-25T04:52:28;100958.88;;;9.49;88.11
15382;BME280;7789;51.364;12.358;2024-01-25T04:57:33;100970.97;;;9.50;87.94
15382;BME280;7789;51.364;12.358;2024-01-25T05:02:36;100982.97;;;9.52;87.25
15382;BME280;7789;51.364;12.358;2024-01-25T05:07:39;100995.91;;;9.54;87.12
15382;BME280;7789;51.364;12.358;2024-01-25T05:12:45;100987.06;;;9.56;86.99
15382;BME280;7789;51.364;12.358;2024-01-25T05:17:48;100995.09;;;9.53;86.21
15382;BME280;7789;51.364;12.358;2024-01-25T05:22:52;100986.19;;;9.56;85.97
15382;BME280;7789;51.364;12.358;2024-01-25T05:27:57;100989.75;;;9.55;84.59
15382;BME280;7789;51.364;12.358;2024-01-25T05:33:01;100987.34;;;9.52;84.16
15382;BME280;7789;51.364;12.358;2024-01-25T05:38:05;100997.72;;;9.53;83.81
15382;BME280;7789;51.364;12.358;2024-01-25T05:43:13;101022.88;;;9.54;83.75
15382;BME280;7789;51.364;12.358;2024-01-25T05:48:17;101024.63;;;9.54;83.42
15382;BME280;7789;51.364;12.358;2024-01-25T05:53:21;101023.47;;;9.58;83.35
15382;BME280;7789;51.364;12.358;2024-01-25T05:58:26;101036.53;;;9.58;83.37
15382;BME280;7789;51.364;12.358;2024-01-25T06:03:29;101038.19;;;9.59;82.62
15382;BME280;7789;51.364;12.358;2024-01-25T06:08:34;101031.94;;;9.61;82.97
15382;BME280;7789;51.364;12.358;2024-01-25T06:13:40;101035.91;;;9.67;82.91
15382;BME280;7789;51.364;12.358;2024-01-25T06:18:43;101038.63;;;9.65;82.60
15382;BME280;7789;51.364;12.358;2024-01-25T06:23:48;101042.38;;;9.61;82.46
15382;BME280;7789;51.364;12.358;2024-01-25T06:28:54;101049.28;;;9.62;82.27
15382;BME280;7789;51.364;12.358;2024-01-25T06:33:58;101062.84;;;9.67;81.79
15382;BME280;7789;51.364;12.358;2024-01-25T06:39:02;101081.66;;;9.72;81.57
15382;BME280;7789;51.364;12.358;2024-01-25T06:44:08;101088.56;;;9.73;81.90
15382;BME280;7789;51.364;12.358;2024-01-25T06:49:16;101106.84;;;9.73;81.53
15382;BME280;7789;51.364;12.358;2024-01-25T06:54:23;101115.47;;;9.74;81.77
15382;BME280;7789;51.364;12.358;2024-01-25T06:59:29;101141.50;;;9.75;81.82
15382;BME280;7789;51.364;12.358;2024-01-25T07:04:35;101151.94;;;9.75;82.27
15382;BME280;7789;51.364;12.358;2024-01-25T07:09:40;101167.50;;;9.77;81.82
15382;BME280;7789;51.364;12.358;2024-01-25T07:14:46;101165.09;;;9.74;82.52
15382;BME280;7789;51.364;12.358;2024-01-25T07:19:49;101167.91;;;9.71;82.48
15382;BME280;7789;51.364;12.358;2024-01-25T07:24:53;101176.75;;;9.68;82.00
15382;BME280;7789;51.364;12.358;2024-01-25T07:29:58;101159.44;;;9.67;82.05
15382;BME280;7789;51.364;12.358;2024-01-25T07:35:01;101172.47;;;9.67;82.29
15382;BME280;7789;51.364;12.358;2024-01-25T07:40:06;101168.19;;;9.66;81.95
15382;BME280;7789;51.364;12.358;2024-01-25T07:45:16;101157.88;;;9.65;81.59
15382;BME280;7789;51.364;12.358;2024-01-25T07:50:19;101170.72;;;9.68;81.42
15382;BME280;7789;51.364;12.358;2024-01-25T07:55:22;101159.94;;;9.60;81.89
15382;BME280;7789;51.364;12.358;2024-01-25T08:00:27;101157.94;;;9.51;81.62
15382;BME280;7789;51.364;12.358;2024-01-25T08:05:31;101175.75;;;9.44;82.40
15382;BME280;7789;51.364;12.358;2024-01-25T08:10:48;101183.38;;;9.47;81.40
15382;BME280;7789;51.364;12.358;2024-01-25T08:15:53;101173.09;;;9.58;81.10
15382;BME280;7789;51.364;12.358;2024-01-25T08:20:57;101180.00;;;9.59;81.97
15382;BME280;7789;51.364;12.358;2024-01-25T08:26:04;101192.63;;;9.65;82.72
15382;BME280;7789;51.364;12.358;2024-01-25T08:31:09;101201.03;;;9.70;83.10
15382;BME280;7789;51.364;12.358;2024-01-25T08:36:13;101204.16;;;9.75;83.48
15382;BME280;7789;51.364;12.358;2024-01-25T08:41:16;101210.22;;;9.76;83.44
15382;BME280;7789;51.364;12.358;2024-01-25T08:46:22;101219.34;;;9.83;83.96
15382;BME280;7789;51.364;12.358;2024-01-25T08:51:26;101225.09;;;9.88;84.11
15382;BME280;7789;51.364;12.358;2024-01-25T08:56:29;101213.41;;;9.93;84.16
15382;BME280;7789;51.364;12.358;2024-01-25T09:01:34;101234.38;;;10.06;84.31
15382;BME280;7789;51.364;12.358;2024-01-25T09:06:38;101243.06;;;10.19;84.47
15382;BME280;7789;51.364;12.358;2024-01-25T09:11:42;101238.50;;;10.35;84.19
15382;BME280;7789;51.364;12.358;2024-01-25T09:16:47;101248.97;;;10.47;83.21
15382;BME280;7789;51.364;12.358;2024-01-25T09:21:52;101243.72;;;10.47;83.68
15382;BME280;7789;51.364;12.358;2024-01-25T09:26:56;101251.38;;;10.50;83.43
15382;BME280;7789;51.364;12.358;2024-01-25T09:32:02;101257.03;;;10.57;83.45
15382;BME280;7789;51.364;12.358;2024-01-25T09:37:06;101247.28;;;10.46;83.08
15382;BME280;7789;51.364;12.358;2024-01-25T09:42:10;101244.69;;;10.46;82.71
15382;BME280;7789;51.364;12.358;2024-01-25T09:47:22;101248.75;;;10.63;81.90
15382;BME280;7789;51.364;12.358;2024-01-25T09:52:26;101257.13;;;10.80;81.52
15382;BME280;7789;51.364;12.358;2024-01-25T09:57:33;101271.75;;;11.07;80.80
15382;BME280;7789;51.364;12.358;2024-01-25T10:02:42;101275.28;;;11.31;80.24
15382;BME280;7789;51.364;12.358;2024-01-25T10:07:46;101279.56;;;11.57;79.80
15382;BME280;7789;51.364;12.358;2024-01-25T10:12:49;101282.16;;;11.57;79.63
15382;BME280;7789;51.364;12.358;2024-01-25T10:17:55;101289.28;;;11.55;78.91
15382;BME280;7789;51.364;12.358;2024-01-25T10:23:18;101288.88;;;11.49;78.50
15382;BME280;7789;51.364;12.358;2024-01-25T10:28:23;101285.34;;;11.37;78.44
15382;BME280;7789;51.364;12.358;2024-01-25T10:33:30;101276.53;;;11.38;78.97
15382;BME280;7789;51.364;12.358;2024-01-25T10:38:37;101295.56;;;11.53;78.19
15382;BME280;7789;51.364;12.358;2024-01-25T10:43:41;101285.41;;;11.61;78.55
15382;BME280;7789;51.364;12.358;2024-01-25T10:48:51;101285.19;;;11.64;78.05
15382;BME280;7789;51.364;12.358;2024-01-25T10:54:00;101292.09;;;11.65;77.92
15382;BME280;7789;51.364;12.358;2024-01-25T10:59:04;101295.22;;;11.70;77.96
15382;BME280;7789;51.364;12.358;2024-01-25T11:04:14;101277.75;;;11.70;76.54
15382;BME280;7789;51.364;12.358;2024-01-25T11:09:20;101280.78;;;11.88;77.16
15382;BME280;7789;51.364;12.358;2024-01-25T11:14:28;101259.84;;;11.88;75.33
15382;BME280;7789;51.364;12.358;2024-01-25T11:19:35;101268.16;;;11.82;75.36
15382;BME280;7789;51.364;12.358;2024-01-25T11:24:41;101268.41;;;11.90;75.79
15382;BME280;7789;51.364;12.358;2024-01-25T11:29:45;101274.00;;;11.85;74.99
15382;BME280;7789;51.364;12.358;2024-01-25T11:34:59;101271.50;;;11.84;74.70
15382;BME280;7789;51.364;12.358;2024-01-25T11:40:04;101257.84;;;11.91;74.36
15382;BME280;7789;51.364;12.358;2024-01-25T11:45:10;101261.63;;;12.11;75.03
15382;BME280;7789;51.364;12.358;2024-01-25T11:50:16;101261.41;;;12.25;73.79
15382;BME280;7789;51.364;12.358;2024-01-25T11:55:32;101268.41;;;12.48;73.82
15382;BME280;7789;51.364;12.358;2024-01-25T12:00:36;101266.75;;;12.47;73.57
15382;BME280;7789;51.364;12.358;2024-01-25T12:05:44;101258.53;;;12.51;73.15
15382;BME280;7789;51.364;12.358;2024-01-25T12:10:50;101252.53;;;12.38;73.09
15382;BME280;7789;51.364;12.358;2024-01-25T12:15:54;101251.78;;;12.25;73.08
15382;BME280;7789;51.364;12.358;2024-01-25T12:20:59;101263.28;;;12.12;73.26
15382;BME280;7789;51.364;12.358;2024-01-25T12:26:07;101270.16;;;12.02;74.05
15382;BME280;7789;51.364;12.358;2024-01-25T12:31:13;101277.84;;;11.92;74.28
15382;BME280;7789;51.364;12.358;2024-01-25T12:36:17;101271.66;;;11.93;74.84
15382;BME280;7789;51.364;12.358;2024-01-25T12:41:22;101284.50;;;11.85;74.60
15382;BME280;7789;51.364;12.358;2024-01-25T12:46:26;101274.66;;;11.76;75.17
15382;BME280;7789;51.364;12.358;2024-01-25T12:51:29;101275.50;;;11.77;74.66
15382;BME280;7789;51.364;12.358;2024-01-25T12:56:34;101275.50;;;11.77;74.51
15382;BME280;7789;51.364;12.358;2024-01-25T13:01:39;101269.66;;;11.73;74.29
15382;BME280;7789;51.364;12.358;2024-01-25T13:06:43;101271.31;;;11.74;75.05
15382;BME280;7789;51.364;12.358;2024-01-25T13:11:48;101278.22;;;11.75;73.90
15382;BME280;7789;51.364;12.358;2024-01-25T13:16:54;101280.91;;;11.63;74.83
15382;BME280;7789;51.364;12.358;2024-01-25T13:21:57;101272.31;;;11.61;73.98
15382;BME280;7789;51.364;12.358;2024-01-25T13:27:02;101267.69;;;11.64;74.43
15382;BME280;7789;51.364;12.358;2024-01-25T13:32:07;101264.41;;;11.73;74.17
15382;BME280;7789;51.364;12.358;2024-01-25T13:37:11;101254.88;;;11.72;73.62
15382;BME280;7789;51.364;12.358;2024-01-25T13:42:16;101246.41;;;11.69;73.51
15382;BME280;7789;51.364;12.358;2024-01-25T13:47:19;101260.44;;;11.68;73.84
15382;BME280;7789;51.364;12.358;2024-01-25T13:52:23;101260.91;;;11.49;72.63
15382;BME280;7789;51.364;12.358;2024-01-25T13:57:30;101247.25;;;11.33;73.00
15382;BME280;7789;51.364;12.358;2024-01-25T14:02:34;101272.38;;;11.23;73.67
15382;BME280;7789;51.364;12.358;2024-01-25T14:07:38;101271.75;;;11.20;74.02
15382;BME280;7789;51.364;12.358;2024-01-25T14:12:43;101275.09;;;11.09;74.53
15382;BME280;7789;51.364;12.358;2024-01-25T14:17:47;101286.22;;;11.01;74.36
15382;BME280;7789;51.364;12.358;2024-01-25T14:22:52;101285.91;;;10.93;74.47
15382;BME280;7789;51.364;12.358;2024-01-25T14:28:01;101293.53;;;10.83;74.65
15382;BME280;7789;51.364;12.358;2024-01-25T14:33:05;101277.13;;;10.81;74.53
15382;BME280;7789;51.364;12.358;2024-01-25T14:38:08;101284.84;;;10.70;75.05
15382;BME280;7789;51.364;12.358;2024-01-25T14:43:25;101278.38;;;10.63;75.53
15382;BME280;7789;51.364;12.358;2024-01-25T14:48:28;101273.94;;;10.51;75.84
15382;BME280;7789;51.364;12.358;2024-01-25T14:53:34;101286.72;;;10.43;76.42
15382;BME280;7789;51.364;12.358;2024-01-25T14:58:40;101279.66;;;10.31;77.11
15382;BME280;7789;51.364;12.358;2024-01-25T15:03:44;101272.25;;;10.25;76.93
15382;BME280;7789;51.364;12.358;2024-01-25T15:08:49;101270.44;;;10.13;77.95
15382;BME280;7789;51.364;12.358;2024-01-25T15:13:54;101266.00;;;10.01;77.63
15382;BME280;7789;51.364;12.358;2024-01-25T15:18:58;101273.47;;;9.93;77.89
15382;BME280;7789;51.364;12.358;2024-01-25T15:24:05;101276.88;;;9.81;78.74
15382;BME280;7789;51.364;12.358;2024-01-25T15:29:10;101277.03;;;9.66;79.62
15382;BME280;7789;51.364;12.358;2024-01-25T15:34:13;101279.38;;;9.56;78.93
15382;BME280;7789;51.364;12.358;2024-01-25T15:39:18;101273.97;;;9.45;79.62
15382;BME280;7789;51.364;12.358;2024-01-25T15:44:23;101283.22;;;9.37;80.09
15382;BME280;7789;51.364;12.358;2024-01-25T15:49:27;101291.06;;;9.23;80.72
15382;BME280;7789;51.364;12.358;2024-01-25T15:54:31;101294.44;;;9.11;81.07
15382;BME280;7789;51.364;12.358;2024-01-25T15:59:37;101296.09;;;8.98;81.94
15382;BME280;7789;51.364;12.358;2024-01-25T16:04:40;101297.56;;;8.88;82.28
15382;BME280;7789;51.364;12.358;2024-01-25T16:09:44;101309.50;;;8.78;82.34
15382;BME280;7789;51.364;12.358;2024-01-25T16:14:51;101315.44;;;8.66;83.29
15382;BME280;7789;51.364;12.358;2024-01-25T16:19:57;101323.88;;;8.56;83.76
15382;BME280;7789;51.364;12.358;2024-01-25T16:25:01;101325.16;;;8.49;83.71
15382;BME280;7789;51.364;12.358;2024-01-25T16:30:07;101321.31;;;8.40;84.27
15382;BME280;7789;51.364;12.358;2024-01-25T16:35:14;101309.56;;;8.33;85.05
15382;BME280;7789;51.364;12.358;2024-01-25T16:40:17;101301.44;;;8.24;84.75
15382;BME280;7789;51.364;12.358;2024-01-25T16:45:22;101311.34;;;8.17;85.70
15382;BME280;7789;51.364;12.358;2024-01-25T16:50:26;101320.34;;;8.12;85.56
15382;BME280;7789;51.364;12.358;2024-01-25T16:55:29;101325.78;;;8.07;85.65
15382;BME280;7789;51.364;12.358;2024-01-25T17:00:34;101332.22;;;8.02;86.77
15382;BME280;7789;51.364;12.358;2024-01-25T17:05:45;101332.53;;;7.96;86.70
15382;BME280;7789;51.364;12.358;2024-01-25T17:10:53;101339.84;;;7.89;87.50
15382;BME280;7789;51.364;12.358;2024-01-25T17:15:59;101331.44;;;7.84;87.22
15382;BME280;7789;51.364;12.358;2024-01-25T17:21:08;101334.41;;;7.78;87.32
15382;BME280;7789;51.364;12.358;2024-01-25T17:26:18;101339.00;;;7.73;87.24
15382;BME280;7789;51.364;12.358;2024-01-25T17:31:34;101348.00;;;7.68;87.97
15382;BME280;7789;51.364;12.358;2024-01-25T17:36:37;101338.66;;;7.64;87.98
15382;BME280;7789;51.364;12.358;2024-01-25T17:41:41;101339.00;;;7.58;87.48
15382;BME280;7789;51.364;12.358;2024-01-25T17:46:46;101334.03;;;7.53;89.00
15382;BME280;7789;51.364;12.358;2024-01-25T17:51:49;101342.19;;;7.47;87.88
15382;BME280;7789;51.364;12.358;2024-01-25T17:56:53;101344.19;;;7.42;88.98
15382;BME280;7789;51.364;12.358;2024-01-25T18:02:01;101350.47;;;7.38;89.12
15382;BME280;7789;51.364;12.358;2024-01-25T18:07:09;101354.31;;;7.31;89.48
15382;BME280;7789;51.364;12.358;2024-01-25T18:12:12;101351.94;;;7.27;89.35
15382;BME280;7789;51.364;12.358;2024-01-25T18:17:20;101349.69;;;7.21;90.85
15382;BME280;7789;51.364;12.358;2024-01-25T18:22:24;101350.84;;;7.16;90.23
15382;BME280;7789;51.364;12.358;2024-01-25T18:27:30;101346.78;;;7.10;91.20
15382;BME280;7789;51.364;12.358;2024-01-25T18:32:36;101355.84;;;7.03;91.16
15382;BME280;7789;51.364;12.358;2024-01-25T18:37:43;101358.13;;;6.92;91.08
15382;BME280;7789;51.364;12.358;2024-01-25T18:42:47;101357.59;;;6.86;92.52
15382;BME280;7789;51.364;12.358;2024-01-25T18:47:56;101357.16;;;6.78;92.45
15382;BME280;7789;51.364;12.358;2024-01-25T18:53:01;101360.91;;;6.72;93.01
15382;BME280;7789;51.364;12.358;2024-01-25T18:58:05;101361.13;;;6.68;93.10
15382;BME280;7789;51.364;12.358;2024-01-25T19:03:11;101358.84;;;6.62;94.35
15382;BME280;7789;51.364;12.358;2024-01-25T19:08:18;101367.84;;;6.55;94.76
15382;BME280;7789;51.364;12.358;2024-01-25T19:13:24;101352.50;;;6.50;95.09
15382;BME280;7789;51.364;12.358;2024-01-25T19:18:29;101357.06;;;6.45;95.31
15382;BME280;7789;51.364;12.358;2024-01-25T19:23:35;101367.69;;;6.41;96.30
15382;BME280;7789;51.364;12.358;2024-01-25T19:28:39;101371.34;;;6.37;96.33
15382;BME280;7789;51.364;12.358;2024-01-25T19:33:47;101368.22;;;6.30;97.12
15382;BME280;7789;51.364;12.358;2024-01-25T19:38:51;101370.19;;;6.25;97.66
15382;BME280;7789;51.364;12.358;2024-01-25T19:43:55;101366.97;;;6.20;97.86
15382;BME280;7789;51.364;12.358;2024-01-25T19:49:00;101366.34;;;6.15;98.07
15382;BME280;7789;51.364;12.358;2024-01-25T19:54:05;101364.88;;;6.10;98.96
15382;BME280;7789;51.364;12.358;2024-01-25T19:59:09;101384.25;;;6.03;99.19
15382;BME280;7789;51.364;12.358;2024-01-25T20:04:16;101384.53;;;5.97;99.66
15382;BME280;7789;51.364;12.358;2024-01-25T20:09:20;101380.31;;;5.94;99.44
15382;BME280;7789;51.364;12.358;2024-01-25T20:14:24;101379.69;;;5.89;100.00
15382;BME280;7789;51.364;12.358;2024-01-25T20:19:30;101383.41;;;5.84;100.00
15382;BME280;7789;51.364;12.358;2024-01-25T20:24:35;101381.09;;;5.78;100.00
15382;BME280;7789;51.364;12.358;2024-01-25T20:29:38;101381.38;;;5.72;100.00
15382;BME280;7789;51.364;12.358;2024-01-25T20:34:45;101381.63;;;5.66;100.00
15382;BME280;7789;51.364;12.358;2024-01-25T20:39:52;101384.38;;;5.63;100.00
15382;BME280;7789;51.364;12.358;2024-01-25T20:45:00;101375.97;;;5.58;100.00
15382;BME280;7789;51.364;12.358;2024-01-25T20:50:07;101369.31;;;5.52;100.00
15382;BME280;7789;51.364;12.358;2024-01-25T20:55:19;101378.06;;;5.50;100.00
15382;BME280;7789;51.364;12.358;2024-01-25T21:00:22;101375.69;;;5.45;100.00
15382;BME280;7789;51.364;12.358;2024-01-25T21:05:28;101361.16;;;5.41;100.00
15382;BME280;7789;51.364;12.358;2024-01-25T21:10:32;101362.91;;;5.41;100.00
15382;BME280;7789;51.364;12.358;2024-01-25T21:15:35;101347.56;;;5.37;100.00
15382;BME280;7789;51.364;12.358;2024-01-25T21:20:44;101352.81;;;5.35;100.00
15382;BME280;7789;51.364;12.358;2024-01-25T21:25:51;101356.41;;;5.33;100.00
15382;BME280;7789;51.364;12.358;2024-01-25T21:30:54;101372.16;;;5.28;100.00
15382;BME280;7789;51.364;12.358;2024-01-25T21:35:59;101354.19;;;5.24;100.00
15382;BME280;7789;51.364;12.358;2024-01-25T21:41:06;101356.09;;;5.20;100.00
15382;BME280;7789;51.364;12.358;2024-01-25T21:46:12;101347.63;;;5.17;100.00
15382;BME280;7789;51.364;12.358;2024-01-25T21:51:17;101344.41;;;5.12;100.00
15382;BME280;7789;51.364;12.358;2024-01-25T21:56:22;101349.69;;;5.09;100.00
15382;BME280;7789;51.364;12.358;2024-01-25T22:01:26;101343.81;;;5.05;100.00
15382;BME280;7789;51.364;12.358;2024-01-25T22:06:35;101347.50;;;5.00;100.00
15382;BME280;7789;51.364;12.358;2024-01-25T22:11:46;101348.41;;;4.99;100.00
15382;BME280;7789;51.364;12.358;2024-01-25T22:16:52;101355.47;;;4.95;100.00
15382;BME280;7789;51.364;12.358;2024-01-25T22:21:58;101338.25;;;4.94;100.00
15382;BME280;7789;51.364;12.358;2024-01-25T22:27:03;101348.59;;;4.94;100.00
15382;BME280;7789;51.364;12.358;2024-01-25T22:32:09;101352.09;;;4.93;100.00
15382;BME280;7789;51.364;12.358;2024-01-25T22:37:14;101340.06;;;4.92;100.00
15382;BME280;7789;51.364;12.358;2024-01-25T22:42:17;101344.47;;;4.90;100.00
15382;BME280;7789;51.364;12.358;2024-01-25T22:47:21;101333.84;;;4.96;100.00
15382;BME280;7789;51.364;12.358;2024-01-25T22:52:30;101341.41;;;5.01;100.00
15382;BME280;7789;51.364;12.358;2024-01-25T22:57:34;101343.81;;;5.05;100.00
15382;BME280;7789;51.364;12.358;2024-01-25T23:02:38;101346.13;;;5.11;100.00
15382;BME280;7789;51.364;12.358;2024-01-25T23:07:43;101353.50;;;5.20;100.00
15382;BME280;7789;51.364;12.358;2024-01-25T23:12:46;101343.84;;;5.24;100.00
15382;BME280;7789;51.364;12.358;2024-01-25T23:17:51;101335.16;;;5.25;100.00
15382;BME280;7789;51.364;12.358;2024-01-25T23:22:57;101339.41;;;5.26;100.00
15382;BME280;7789;51.364;12.358;2024-01-25T23:28:01;101340.13;;;5.29;100.00
15382;BME280;7789;51.364;12.358;2024-01-25T23:33:05;101341.81;;;5.30;100.00
15382;BME280;7789;51.364;12.358;2024-01-25T23:38:10;101330.81;;;5.25;100.00
15382;BME280;7789;51.364;12.358;2024-01-25T23:43:14;101330.97;;;5.22;100.00
15382;BME280;7789;51.364;12.358;2024-01-25T23:48:17;101331.72;;;5.24;100.00
15382;BME280;7789;51.364;12.358;2024-01-25T23:53:23;101321.28;;;5.26;100.00
15382;BME280;7789;51.364;12.358;2024-01-25T23:58:28;101318.78;;;5.24;100.00
